aviador You're here:

LFRO Decoded Metar

LANNION in FRANCE
Report Time2018-01-18 01:30:00
UTC Time2018-01-18 01:54:42
Flight Rules ifr IFR
Wind230° at 23 Gusting to 37 kt
W.Decomp.*RWY 29: 12.2 kt HW 19.5 kt LCW
W.Rank230° ranks 5
Current wind is above 230° avg. (10.0)
Visibility3700 m
Phenomena:Rain
Mist
Clouds:Overcast 007 Hf
Expected CloudBase > 400 ft AGL from Temp-Dew spread
Ceiling700 ft
Temp10°C (ISA -4)
Dew Point09°C (94% RH)
AAT1.5°C
QNH1010 hPa
Density Alt23 ft
Elevation292 ft
Report Wrong Elevation
Raw Report
METAR LFRO 180130Z AUTO 23023G37KT 3700 RA BR OVC007/// 10/09 Q1010=

Extra information for LFRO:More info

Metar Taf Metar & Taf Last 4 Metars F.Rules Stats Wind Profile Meteogram Temp Stats Airport Information Weather charts Add Link Nearby VenuesMetar ALERT Operation Metar Decoded Social comments